• Join FlightAware (Why Join?)
  • Login
  • US Flag 
01:01PM EDT


 

Airport Tracker/Info


-or-


 

Live Flight TrackerFlight Track Log ✈ UAL4625 ✈ 21-Apr-2013 ✈ KCHS - KEWR

Flight Track Log - Related Links

Times and Time Zones

All times are in EDT time to prevent confusion due to time zone crossing. See the UAL4625 flight status page for this flight to view local times or setup timezone preferences in your user account.

Time Position Orientation Groundspeed Altitude Reporting Facility
EDT Latitude Longitude Course Direction KTS MPH feet Rate Location/Type
10:47AM 32.9833 -80.0100 15° North 216 249 4,200  Level Jacksonville Center
10:48AM 33.0392 -79.9933 14° North 228 262 7,100 2,520 Climbing Jacksonville Center
10:49AM 33.1649 -79.9500 North  Level FlightAware Approximate
10:49AM 33.1056 -79.9764 12° North 228 262 9,300  Level Jacksonville Center
10:50AM 33.2598 -79.9247 North  Level FlightAware Approximate
10:50AM 33.1886 -79.9539 13° North 256 295 10,700  Level Jacksonville Center
10:51AM 33.3523 -79.8905 23° Northeast  Level FlightAware Approximate
10:51AM 33.2842 -79.9283 13° North 308 354 11,800  Level Jacksonville Center
10:52AM 33.4474 -79.8672 North  Level FlightAware Approximate
10:52AM 33.3897 -79.8975 14° North 353 406 13,200  Level Jacksonville Center
10:53AM 33.4975 -79.8664 14° North 379 436 14,600 1,440 Climbing Jacksonville Center
10:54AM 33.6075 -79.8353 13° North 399 459 16,100 1,500 Climbing Jacksonville Center
10:55AM 33.7214 -79.8039 13° North 404 465 17,600 1,260 Climbing Jacksonville Center
10:56AM 33.8333 -79.7700 14° North 410 472 18,700 1,200 Climbing Jacksonville Center
10:57AM 33.9472 -79.7383 13° North 410 472 20,100 1,440 Climbing Jacksonville Center
10:58AM 34.0631 -79.7039 14° North 410 472 21,600 1,440 Climbing Jacksonville Center
10:59AM 34.1772 -79.6722 13° North 415 478 23,000 1,200 Climbing Jacksonville Center
11:00AM 34.2831 -79.6558 North 415 478 24,100 1,140 Climbing Jacksonville Center
11:03AM 34.5475 -79.5808 13° North 428 493 26,700 1,200 Climbing Washington Center
11:04AM 34.6644 -79.5186 24° Northeast 433 498 27,900 1,140 Climbing Washington Center
11:05AM 34.7772 -79.4531 26° Northeast 445 512 29,000 1,140 Climbing Washington Center
11:06AM 34.8919 -79.3878 25° Northeast 445 512 30,200 1,200 Climbing Washington Center
11:07AM 35.0067 -79.3219 25° Northeast 445 512 31,400 1,140 Climbing Washington Center
11:08AM 35.1192 -79.2586 25° Northeast 445 512 32,600 1,140 Climbing Washington Center
11:09AM 35.2339 -79.1928 25° Northeast 445 512 33,700 900 Climbing Washington Center
11:10AM 35.3550 -79.1242 25° Northeast 451 519 34,400 600 Climbing Washington Center
11:11AM 35.4694 -79.0581 25° Northeast 458 527 34,900 300 Climbing Washington Center
11:12AM 35.5925 -78.9867 25° Northeast 471 542 35,000  Climbing Washington Center
11:13AM 35.7197 -78.9128 25° Northeast 482 555 35,000  Level Washington Center
11:14AM 35.8236 -78.8531 25° Northeast 492 566 35,000  Level Washington Center
11:15AM 35.9594 -78.7739 25° Northeast 492 566 35,000  Level Washington Center
11:16AM 36.0844 -78.6967 27° Northeast 492 566 35,000  Level Washington Center
11:17AM 36.2094 -78.6244 25° Northeast 492 566 35,000  Level Washington Center
11:18AM 36.3386 -78.5494 25° Northeast 492 566 35,000  Level Washington Center
11:19AM 36.4636 -78.4742 26° Northeast 492 566 35,000  Level Washington Center
11:20AM 36.5925 -78.4014 24° Northeast 497 572 35,000  Level Washington Center
11:21AM 36.7153 -78.3231 27° Northeast 497 572 35,000  Level Washington Center
11:22AM 36.8422 -78.2469 26° Northeast 497 572 35,000  Level Washington Center
11:23AM 36.9861 -78.1583 26° Northeast 497 572 35,000  Level Washington Center
11:24AM 37.0958 -78.0942 25° Northeast 500 575 35,000  Level Washington Center
11:25AM 37.2228 -78.0150 26° Northeast 500 575 35,000  Level Washington Center
11:26AM 37.3472 -77.9406 25° Northeast 495 570 35,000  Level Washington Center
11:27AM 37.4717 -77.8658 25° Northeast 495 570 35,000  Level Washington Center
11:28AM 37.5903 -77.7725 32° Northeast 495 570 35,000  Level Washington Center
11:29AM 37.7069 -77.6681 35° Northeast 500 575 35,000  Level Washington Center
11:30AM 37.8214 -77.5608 36° Northeast 505 581 35,000  Level Washington Center
11:31AM 37.9356 -77.4583 35° Northeast 505 581 35,000  Level Washington Center
11:32AM 38.0603 -77.3456 35° Northeast 505 581 35,000  Level Washington Center
11:33AM 38.1764 -77.2400 36° Northeast 505 581 35,000  Level Washington Center
11:34AM 38.2842 -77.1392 36° Northeast 517 595 35,000  Level Washington Center
11:35AM 38.3961 -77.0356 36° Northeast 517 595 35,000  Level Washington Center
11:36AM 38.5119 -76.9264 36° Northeast 512 589 35,000  Level Washington Center
11:37AM 38.6256 -76.8194 36° Northeast 512 589 35,000  Level Washington Center
11:38AM 38.7372 -76.7094 38° Northeast 512 589 35,000  Level Washington Center
11:39AM 38.8447 -76.5831 42° Northeast 512 589 35,000 -840 Level Washington Center
11:40AM 38.9519 -76.4592 42° Northeast 512 589 33,400 -1,500 Descending Washington Center
11:41AM 39.0592 -76.3319 43° Northeast 512 589 32,000 -1,680 Descending Washington Center
11:42AM 39.1744 -76.1967 42° Northeast 512 589 30,100 -2,520 Descending Washington Center
11:43AM 39.2750 -76.0903 39° Northeast 512 589 27,000 -1,560 Descending Washington Center
11:44AM 39.3775 -75.9647 43° Northeast 512 589 27,000  Level Washington Center
11:45AM 39.4842 -75.8417 42° Northeast 512 589 27,000 -720 Level Washington Center
11:46AM 39.5886 -75.7153 43° Northeast 512 589 25,600 -1,980 Descending Washington Center
11:47AM 39.6906 -75.5969 42° Northeast 507 583 23,100 -1,800 Descending Washington Center
11:48AM 39.7886 -75.4753 44° Northeast 495 570 22,100 -2,520 Descending Washington Center
11:49AM 39.8883 -75.3589 42° Northeast 466 536 18,100 -3,540 Descending Washington Center
11:50AM 39.9714 -75.2558 44° Northeast 431 496 15,100 -2,700 Descending Washington Center
11:51AM 40.0503 -75.1606 43° Northeast 400 460 12,800 -2,100 Descending Washington Center
11:52AM 40.1269 -75.0650 44° Northeast 388 447 11,000 -1,320 Descending Washington Center
11:53AM 40.2167 -74.9500 44° Northeast 286 329 9,500 -1,200 Descending New York TRACON
11:54AM 40.2667 -74.8833 45° Northeast 275 316 8,100 -1,020 Descending New York TRACON
11:55AM 40.3000 -74.8000 62° Northeast 287 330 7,500 -840 Descending New York TRACON
11:56AM 40.3167 -74.7000 78° East 274 315 6,500 -840 Descending New York TRACON
11:57AM 40.3333 -74.6000 78° East 239 275 5,900 -1,500 Descending New York TRACON
11:58AM 40.3500 -74.5167 75° East 231 266 3,600 -1,500 Descending New York TRACON
11:59AM 40.3833 -74.4667 49° Northeast 198 228 3,000 -300 Descending New York TRACON
12:00PM 40.4000 -74.4000 72° East 192 221 3,000  Level New York TRACON
12:01PM 40.4333 -74.3500 49° Northeast 190 219 3,000 120 Level New York TRACON
12:02PM 40.4833 -74.3000 37° Northeast 191 220 3,300  Climbing New York TRACON
12:03PM 40.5167 -74.2833 21° North 162 186 3,000 -300 Descending New York TRACON
12:04PM 40.5500 -74.2500 37° Northeast 157 181 2,800 -540 Descending New York TRACON
12:05PM 40.6000 -74.2333 14° North 153 176 2,000 -840 Descending New York TRACON